Time;durP1;ratioP1;P1;durP2;ratioP2;P2;SDS_P1;SDS_P2;PMS_P1;PMS_P2;Temp;Humidity;BMP_temperature;BMP_pressure;BME280_temperature;BME280_humidity;BME280_pressure;Samples;Min_cycle;Max_cycle;Signal;HPM_P1;HPM_P2
2023/08/29 00:05:27;;;;;;;8.40;6.50;;;;;;;18.22;79.49;98489.62;431799;1264;348826;-65
2023/08/29 00:15:33;;;;;;;8.10;6.60;;;;;;;18.20;79.51;98448.02;432574;1267;139734;-64
2023/08/29 00:25:39;;;;;;;6.40;5.00;;;;;;;18.18;79.70;98435.30;432396;1264;140635;-63
2023/08/29 00:35:46;;;;;;;6.80;6.10;;;;;;;18.17;79.75;98419.64;432143;1264;139289;-63
2023/08/29 00:45:52;;;;;;;7.10;6.40;;;;;;;18.16;79.87;98424.28;432228;1264;139488;-63
2023/08/29 00:55:58;;;;;;;6.60;5.90;;;;;;;18.16;79.79;98462.66;432086;1267;139720;-65
2023/08/29 01:06:04;;;;;;;5.70;5.20;;;;;;;18.11;79.54;98517.24;432455;1267;139453;-63
2023/08/29 01:16:13;;;;;;;7.20;6.60;;;;;;;18.03;78.88;98523.57;432533;1264;139347;-64
2023/08/29 01:26:20;;;;;;;8.20;7.30;;;;;;;17.92;78.16;98510.94;432246;1264;139285;-63
2023/08/29 01:36:28;;;;;;;11.60;8.30;;;;;;;17.78;77.54;98487.86;432403;1268;139806;-63
2023/08/29 01:46:34;;;;;;;7.90;7.20;;;;;;;17.69;77.30;98463.85;432900;1264;141545;-64
2023/08/29 01:56:42;;;;;;;9.40;8.50;;;;;;;17.61;77.32;98438.77;432473;1267;139109;-65
2023/08/29 02:06:48;;;;;;;8.80;7.90;;;;;;;17.56;77.57;98464.86;432265;1264;139276;-63
2023/08/29 02:16:53;;;;;;;8.80;7.90;;;;;;;17.49;78.32;98501.52;432438;1267;139337;-64
2023/08/29 02:26:59;;;;;;;9.10;8.30;;;;;;;17.38;79.12;98497.16;432358;1264;139579;-63
2023/08/29 02:37:07;;;;;;;9.20;8.40;;;;;;;17.25;80.48;98499.23;432770;1264;139504;-63
2023/08/29 02:47:13;;;;;;;9.60;8.30;;;;;;;17.10;81.66;98486.33;432126;1265;139365;-64
2023/08/29 02:57:19;;;;;;;11.00;9.80;;;;;;;16.99;82.64;98467.86;432554;1264;139346;-63
2023/08/29 03:07:25;;;;;;;10.00;9.10;;;;;;;16.90;83.43;98472.77;431884;1264;140235;-63
2023/08/29 03:17:31;;;;;;;10.60;9.50;;;;;;;16.80;84.06;98449.54;432136;1264;139900;-63
2023/08/29 03:27:37;;;;;;;9.90;9.10;;;;;;;16.61;84.71;98426.52;432215;1265;141668;-62
2023/08/29 03:37:43;;;;;;;10.00;9.10;;;;;;;16.44;85.69;98406.75;431995;1264;139494;-63
2023/08/29 03:47:49;;;;;;;9.30;8.50;;;;;;;16.27;86.57;98390.78;431837;1264;140342;-64
2023/08/29 03:57:55;;;;;;;8.50;7.70;;;;;;;16.14;87.65;98397.22;432455;1264;139426;-63
2023/08/29 04:08:01;;;;;;;9.80;8.90;;;;;;;16.05;88.72;98377.32;432825;1264;139528;-64
2023/08/29 04:18:08;;;;;;;7.80;7.10;;;;;;;15.97;89.92;98359.83;432117;1267;139129;-64
2023/08/29 04:28:20;;;;;;;8.10;7.30;;;;;;;15.91;90.74;98335.20;433917;1264;140342;-63
2023/08/29 04:38:25;;;;;;;10.10;8.30;;;;;;;15.78;91.90;98308.48;432719;1264;139225;-64
2023/08/29 04:48:31;;;;;;;8.80;8.00;;;;;;;15.73;92.90;98311.17;432427;1267;139476;-64
2023/08/29 04:58:37;;;;;;;8.10;7.40;;;;;;;15.78;93.77;98300.73;431920;1265;140709;-64
2023/08/29 05:08:42;;;;;;;8.40;7.70;;;;;;;15.89;94.53;98283.41;432468;1265;140233;-64
2023/08/29 05:18:48;;;;;;;9.50;8.60;;;;;;;16.01;95.07;98304.38;432998;1264;140130;-63
2023/08/29 05:28:54;;;;;;;7.40;6.80;;;;;;;16.25;95.40;98324.04;432677;1267;139368;-61
2023/08/29 05:39:00;;;;;;;8.00;7.30;;;;;;;16.53;95.59;98315.94;431917;1266;140762;-63
2023/08/29 05:49:06;;;;;;;8.80;7.90;;;;;;;16.86;95.18;98299.25;432279;1265;140944;-63
2023/08/29 05:59:12;;;;;;;8.80;7.90;;;;;;;17.15;94.92;98292.21;432943;1267;139803;-63
2023/08/29 06:09:19;;;;;;;8.50;7.50;;;;;;;17.76;94.84;98303.58;433298;1264;139456;-69
2023/08/29 06:19:25;;;;;;;7.80;7.00;;;;;;;18.39;93.27;98315.77;435825;1264;139564;-67
2023/08/29 06:29:31;;;;;;;6.20;5.70;;;;;;;19.58;92.59;98304.05;433502;1267;139307;-74
2023/08/29 06:39:47;;;;;;;5.10;4.70;;;;;;;21.83;89.29;98286.52;434830;1263;140191;-67
2023/08/29 06:49:55;;;;;;;6.20;5.70;;;;;;;23.88;81.38;98290.75;434986;1264;139331;-65
2023/08/29 07:00:00;;;;;;;5.40;4.90;;;;;;;25.03;74.67;98309.03;432987;1267;139691;-65
2023/08/29 07:10:23;;;;;;;5.80;5.30;;;;;;;24.94;70.80;98325.69;433082;1265;138951;-76
2023/08/29 07:20:32;;;;;;;5.60;5.20;;;;;;;23.97;70.06;98313.02;434555;1267;140218;-68
2023/08/29 07:30:44;;;;;;;8.90;6.00;;;;;;;23.65;70.57;98293.94;433044;1265;139712;-70
2023/08/29 07:41:09;;;;;;;8.60;6.10;;;;;;;23.01;70.08;98319.34;435019;1264;139234;-72
2023/08/29 07:51:15;;;;;;;6.70;6.10;;;;;;;22.31;71.52;98355.35;436581;1265;139224;-67
2023/08/29 08:01:21;;;;;;;6.60;5.90;;;;;;;21.71;72.64;98374.80;435155;1265;139800;-72
2023/08/29 08:11:27;;;;;;;6.20;5.60;;;;;;;21.46;74.36;98382.76;434823;1267;139222;-73
2023/08/29 08:21:33;;;;;;;9.50;6.50;;;;;;;21.35;74.86;98357.65;435404;1267;139433;-74
2023/08/29 08:31:38;;;;;;;8.50;7.80;;;;;;;21.14;75.63;98378.64;433267;1267;140635;-72
2023/08/29 08:41:45;;;;;;;11.10;8.40;;;;;;;20.74;76.94;98393.98;434293;1269;141508;-75
2023/08/29 08:51:51;;;;;;;9.30;8.40;;;;;;;20.78;78.86;98343.29;435173;1268;139780;-73
2023/08/29 09:01:58;;;;;;;9.60;8.70;;;;;;;21.02;79.83;98388.01;433813;1268;139410;-64
2023/08/29 09:12:04;;;;;;;11.20;10.00;;;;;;;21.44;82.24;98366.83;431942;1269;139596;-68
2023/08/29 09:22:11;;;;;;;10.80;8.60;;;;;;;22.94;82.69;98361.42;431962;1267;139835;-61
2023/08/29 09:32:17;;;;;;;9.80;8.40;;;;;;;24.33;79.85;98342.07;431796;1267;140047;-70
2023/08/29 09:42:23;;;;;;;34.80;12.00;;;;;;;25.13;76.62;98319.27;432135;1268;140340;-64
2023/08/29 09:52:30;;;;;;;8.50;7.70;;;;;;;25.19;73.94;98328.86;431996;1270;140434;-67
2023/08/29 10:02:40;;;;;;;8.70;7.80;;;;;;;25.18;72.48;98380.39;431974;1269;139113;-63
2023/08/29 10:12:48;;;;;;;10.00;8.50;;;;;;;24.44;71.94;98384.82;432025;1268;140062;-64
2023/08/29 10:22:55;;;;;;;8.00;7.30;;;;;;;24.10;72.04;98391.69;432169;1270;139683;-65
2023/08/29 10:33:02;;;;;;;7.20;6.70;;;;;;;23.35;72.23;98420.84;432012;1270;140346;-64
2023/08/29 10:43:19;;;;;;;9.40;8.60;;;;;;;23.12;73.05;98456.06;432637;1269;140075;-65
2023/08/29 10:53:30;;;;;;;10.80;9.70;;;;;;;22.63;73.56;98471.59;432682;1266;139580;-64
2023/08/29 11:03:45;;;;;;;10.40;9.40;;;;;;;22.37;74.88;98460.47;432616;1266;139686;-65
2023/08/29 11:13:59;;;;;;;9.70;8.90;;;;;;;22.44;75.40;98461.14;433462;1269;140618;-64
2023/08/29 11:24:06;;;;;;;11.40;10.20;;;;;;;22.62;75.25;98460.89;432620;1269;139326;-64
2023/08/29 11:34:17;;;;;;;18.60;12.10;;;;;;;22.91;75.04;98468.92;432827;1269;140572;-66
2023/08/29 11:44:29;;;;;;;16.50;14.80;;;;;;;23.15;73.96;98468.95;432334;1265;140750;-64
2023/08/29 11:54:56;;;;;;;19.60;17.90;;;;;;;22.91;73.21;98460.70;432023;1268;140640;-67
2023/08/29 12:05:07;;;;;;;21.10;16.60;;;;;;;22.72;73.72;98451.98;431739;1269;161588;-66
2023/08/29 12:15:14;;;;;;;20.90;18.30;;;;;;;22.71;73.60;98463.58;432134;1265;141300;-65
2023/08/29 12:25:26;;;;;;;20.80;18.70;;;;;;;22.61;73.93;98472.39;431760;1270;139677;-64
2023/08/29 12:35:32;;;;;;;24.00;21.00;;;;;;;22.61;74.08;98462.92;432105;1269;140919;-69
2023/08/29 12:45:38;;;;;;;23.60;21.50;;;;;;;22.55;73.86;98474.31;432026;1269;140845;-71
2023/08/29 12:56:01;;;;;;;24.20;21.70;;;;;;;22.50;74.10;98463.05;432242;1269;140363;-69
2023/08/29 13:06:08;;;;;;;22.90;20.80;;;;;;;22.71;74.50;98461.93;431909;1269;139729;-68
2023/08/29 13:16:16;;;;;;;22.20;20.40;;;;;;;23.19;74.05;98448.42;431789;1270;139664;-75
2023/08/29 13:26:22;;;;;;;22.10;20.20;;;;;;;23.34;72.78;98452.33;434546;1269;141350;-66
2023/08/29 13:36:28;;;;;;;24.30;21.80;;;;;;;23.40;72.25;98442.35;432090;1269;139812;-66
2023/08/29 13:46:34;;;;;;;19.90;18.10;;;;;;;23.36;71.96;98436.73;432942;1270;139707;-81
2023/08/29 13:56:43;;;;;;;20.60;18.50;;;;;;;23.17;72.22;98465.61;434931;1269;142295;-66
2023/08/29 14:06:49;;;;;;;25.30;20.60;;;;;;;22.90;72.39;98495.12;432039;1269;140569;-62
2023/08/29 14:16:55;;;;;;;22.20;20.00;;;;;;;22.42;72.88;98491.17;431882;1269;140479;-65
2023/08/29 14:27:01;;;;;;;25.50;22.80;;;;;;;21.85;73.89;98492.66;432037;1269;140774;-65
2023/08/29 14:37:09;;;;;;;29.80;26.90;;;;;;;21.29;75.81;98468.34;432306;1269;140517;-71
2023/08/29 14:47:15;;;;;;;35.40;29.90;;;;;;;21.01;78.31;98437.23;432719;1270;140436;-60
2023/08/29 14:57:22;;;;;;;39.70;29.30;;;;;;;21.39;79.97;98437.20;432870;1270;141183;-59
2023/08/29 15:07:28;;;;;;;31.30;28.30;;;;;;;21.94;79.75;98444.15;432427;1269;139943;-62
2023/08/29 15:17:34;;;;;;;29.30;26.20;;;;;;;21.98;78.97;98425.43;432210;1269;141366;-62
2023/08/29 15:27:40;;;;;;;30.20;27.20;;;;;;;21.70;79.38;98425.27;433776;1267;139594;-62
2023/08/29 15:37:46;;;;;;;35.70;32.10;;;;;;;21.34;79.81;98445.38;431985;1270;140860;-62
2023/08/29 15:47:55;;;;;;;38.70;34.90;;;;;;;20.98;80.90;98455.90;432050;1270;140049;-61
2023/08/29 15:58:01;;;;;;;29.80;26.90;;;;;;;20.79;82.05;98473.39;432127;1270;139866;-60
2023/08/29 16:08:09;;;;;;;30.90;28.00;;;;;;;20.62;82.76;98453.01;432522;1269;139995;-59
2023/08/29 16:18:15;;;;;;;32.20;28.90;;;;;;;20.43;83.67;98451.11;438131;1266;140528;-60
2023/08/29 16:28:23;;;;;;;34.00;30.80;;;;;;;20.31;84.87;98476.36;431920;1270;141256;-59
2023/08/29 16:38:29;;;;;;;32.30;29.10;;;;;;;20.13;85.80;98511.27;432135;1270;139821;-59
2023/08/29 16:48:35;;;;;;;32.60;29.10;;;;;;;19.92;87.18;98502.42;432181;1270;139595;-58
2023/08/29 16:58:41;;;;;;;31.60;27.90;;;;;;;19.84;88.04;98432.63;432180;1269;140231;-60
2023/08/29 17:08:47;;;;;;;30.20;27.00;;;;;;;19.63;88.45;98413.23;432014;1267;140339;-59
2023/08/29 17:18:53;;;;;;;31.80;26.30;;;;;;;19.37;89.65;98424.26;432228;1269;142650;-60
2023/08/29 17:28:59;;;;;;;29.60;26.70;;;;;;;19.22;91.28;98436.33;432656;1267;139943;-60
2023/08/29 17:39:05;;;;;;;29.80;26.80;;;;;;;19.11;92.15;98434.05;432750;1270;140004;-58
2023/08/29 17:49:11;;;;;;;29.90;26.80;;;;;;;19.00;93.35;98447.51;432280;1265;139884;-60
2023/08/29 17:59:17;;;;;;;41.50;26.90;;;;;;;18.94;94.48;98443.10;432202;1267;140854;-60
2023/08/29 18:09:22;;;;;;;32.50;29.10;;;;;;;18.88;95.30;98449.09;432257;1265;139547;-60
2023/08/29 18:19:28;;;;;;;29.90;26.90;;;;;;;18.85;96.09;98471.99;432227;1268;140395;-58
2023/08/29 18:29:34;;;;;;;35.10;31.60;;;;;;;18.84;97.07;98452.35;432676;1270;140391;-62
2023/08/29 18:39:40;;;;;;;34.80;31.40;;;;;;;18.73;97.37;98452.77;432383;1267;140981;-62
2023/08/29 18:49:46;;;;;;;31.50;28.40;;;;;;;18.49;97.88;98437.77;432407;1269;140957;-61
2023/08/29 18:59:52;;;;;;;31.90;28.60;;;;;;;18.27;98.94;98417.41;432358;1270;140642;-62
2023/08/29 19:09:57;;;;;;;34.90;31.30;;;;;;;18.08;99.70;98392.88;432067;1270;141397;-62
2023/08/29 19:20:04;;;;;;;31.90;28.60;;;;;;;17.89;100.00;98389.11;431445;1267;140365;-62
2023/08/29 19:30:12;;;;;;;32.60;27.30;;;;;;;17.75;100.00;98381.48;432581;1266;139781;-62
2023/08/29 19:40:17;;;;;;;34.80;30.30;;;;;;;17.65;100.00;98363.20;432391;1269;139958;-65
2023/08/29 19:50:23;;;;;;;32.40;28.90;;;;;;;17.54;100.00;98357.00;431974;1269;141141;-62
2023/08/29 20:00:31;;;;;;;30.60;27.60;;;;;;;17.41;100.00;98373.67;432180;1267;144219;-61
2023/08/29 20:10:36;;;;;;;;;;;;;;;17.34;100.00;98405.93;432494;1265;139817;-61
2023/08/29 20:20:43;;;;;;;27.90;24.90;;;;;;;17.38;100.00;98404.15;432489;1268;126091;-62
2023/08/29 20:30:51;;;;;;;30.50;24.60;;;;;;;17.50;100.00;98428.90;432392;1265;139986;-62
2023/08/29 20:40:57;;;;;;;30.30;26.90;;;;;;;17.62;100.00;98438.73;432337;1268;140203;-63
2023/08/29 20:51:03;;;;;;;28.30;24.50;;;;;;;17.74;100.00;98434.90;432604;1268;139737;-62
2023/08/29 21:01:09;;;;;;;27.90;24.60;;;;;;;17.84;100.00;98431.90;432370;1265;140398;-62
2023/08/29 21:11:15;;;;;;;25.40;23.00;;;;;;;17.87;100.00;98402.16;432155;1265;140672;-62
2023/08/29 21:21:22;;;;;;;25.60;23.10;;;;;;;17.87;100.00;98399.02;432215;1265;139663;-60
2023/08/29 21:31:28;;;;;;;21.40;19.10;;;;;;;17.86;100.00;98389.10;432137;1266;139888;-62
2023/08/29 21:41:33;;;;;;;19.90;17.80;;;;;;;17.86;100.00;98378.39;432542;1265;139605;-62
2023/08/29 21:51:39;;;;;;;23.20;20.80;;;;;;;17.88;100.00;98369.08;432046;1267;139698;-61
2023/08/29 22:01:47;;;;;;;22.40;20.50;;;;;;;17.88;100.00;98376.46;432466;1267;140340;-62
2023/08/29 22:11:53;;;;;;;24.40;21.70;;;;;;;17.88;100.00;98383.45;434015;1269;140671;-62
2023/08/29 22:21:59;;;;;;;26.90;24.10;;;;;;;17.83;100.00;98383.64;432672;1269;139979;-61
2023/08/29 22:32:05;;;;;;;25.50;22.90;;;;;;;17.76;100.00;98384.71;431629;1270;141392;-61
2023/08/29 22:42:11;;;;;;;28.60;23.90;;;;;;;17.73;100.00;98406.49;432466;1269;139935;-63
2023/08/29 22:52:18;;;;;;;29.30;26.00;;;;;;;17.72;100.00;98445.77;432179;1268;139590;-62
2023/08/29 23:02:24;;;;;;;28.60;23.70;;;;;;;17.70;100.00;98439.66;432632;1265;141064;-62
2023/08/29 23:12:29;;;;;;;29.60;26.30;;;;;;;17.67;100.00;98451.98;432277;1265;139830;-62
2023/08/29 23:22:36;;;;;;;29.60;24.80;;;;;;;17.64;100.00;98433.84;432039;1267;139573;-62
2023/08/29 23:32:43;;;;;;;22.30;19.90;;;;;;;17.61;100.00;98422.89;432229;1268;140086;-61
2023/08/29 23:42:54;;;;;;;14.70;13.10;;;;;;;17.54;100.00;98424.37;432823;1268;141441;-62
2023/08/29 23:53:00;;;;;;;12.80;10.90;;;;;;;17.42;100.00;98411.77;432551;1265;141067;-62
